Stations météo

Publicité
Valencia Airport, Espagne (2008284): Température de l'air & dewpoint: 12.08.2019 13:00:00 - 18.08.2019 13:00:00 (CEST)Valencia Airport, Espagne (2008284): Vitesse du vent: 12.08.2019 13:00:00 - 18.08.2019 13:00:00 (CEST)Valencia Airport, Espagne (2008284): Direction du vent: 12.08.2019 13:00:00 - 18.08.2019 13:00:00 (CEST)Valencia Airport, Espagne (2008284): visibility: 12.08.2019 13:00:00 - 18.08.2019 13:00:00 (CEST)
Date & Time tt [°C] td [°C] ff [km/h] ff [knt] dd vv [km]
18.08.2019 13:00:00 32,0 22,0 11 6 SE 10
18.08.2019 12:00:00 31,0 21,0 5 3 - 10
18.08.2019 11:00:00 29,0 21,0 5 3 E 10
18.08.2019 10:00:00 27,0 21,0 8 4 NNW 10
18.08.2019 09:00:00 25,0 20,0 11 6 NW 10
18.08.2019 08:00:00 23,0 20,0 11 6 NW 10
18.08.2019 07:00:00 24,0 21,0 9 5 NW 10
18.08.2019 06:00:00 24,0 21,0 8 4 WNW 10
18.08.2019 05:00:00 24,0 21,0 8 4 NW 10
18.08.2019 04:00:00 25,0 21,0 11 6 NW 10
18.08.2019 03:00:00 26,0 22,0 8 4 NNW 10
18.08.2019 02:00:00 26,0 23,0 8 4 N 10
18.08.2019 01:00:00 26,0 23,0 8 4 NNE 10
18.08.2019 00:00:00 27,0 23,0 11 6 NE 10
17.08.2019 23:00:00 27,0 23,0 13 7 NE 10
17.08.2019 22:00:00 27,0 23,0 15 8 ENE 10
17.08.2019 21:00:00 27,0 23,0 18 10 ENE 10
17.08.2019 20:00:00 28,0 23,0 21 11 ENE 10
17.08.2019 19:00:00 29,0 24,0 21 11 E 10
17.08.2019 18:00:00 30,0 23,0 21 11 ENE 10
17.08.2019 17:00:00 31,0 23,0 16 9 E 10
17.08.2019 16:00:00 31,0 21,0 18 10 ESE 10
17.08.2019 15:00:00 31,0 22,0 18 10 ESE 10
17.08.2019 14:00:00 31,0 22,0 15 8 ESE 10
17.08.2019 13:00:00 30,0 22,0 15 8 SE 10
17.08.2019 12:00:00 30,0 21,0 9 5 ESE 10
17.08.2019 11:00:00 29,0 20,0 4 2 E 10
17.08.2019 10:00:00 27,0 21,0 4 2 - 10
17.08.2019 09:00:00 24,0 20,0 8 4 NNW 10
17.08.2019 08:00:00 23,0 20,0 8 4 NW 10
17.08.2019 07:00:00 23,0 20,0 5 3 NW 10
17.08.2019 06:00:00 23,0 21,0 8 4 NW 10
17.08.2019 05:00:00 24,0 20,0 5 3 WNW 10
17.08.2019 04:00:00 24,0 21,0 2 1 W 10
17.08.2019 03:00:00 25,0 21,0 8 4 NW 10
17.08.2019 02:00:00 26,0 21,0 8 4 NNE 10
17.08.2019 01:00:00 26,0 22,0 9 5 N 10
17.08.2019 00:00:00 26,0 22,0 11 6 N 10
16.08.2019 23:00:00 27,0 22,0 13 7 NNE 10
16.08.2019 22:00:00 27,0 22,0 16 9 NE 10
16.08.2019 21:00:00 27,0 22,0 16 9 ENE 10
16.08.2019 20:00:00 28,0 22,0 16 9 ENE 10
16.08.2019 19:00:00 29,0 22,0 16 9 ESE 10
16.08.2019 18:00:00 30,0 21,0 21 11 SE 10
16.08.2019 17:00:00 30,0 21,0 18 10 ESE 10
16.08.2019 16:00:00 30,0 21,0 21 11 SE 10
16.08.2019 15:00:00 30,0 22,0 16 9 ESE 10
16.08.2019 14:00:00 30,0 21,0 16 9 E 10
16.08.2019 13:00:00 29,0 22,0 13 7 E 10
16.08.2019 12:00:00 29,0 22,0 9 5 E 10
16.08.2019 11:00:00 28,0 21,0 15 8 ENE 10
16.08.2019 10:00:00 27,0 20,0 11 6 NNW 10
16.08.2019 09:00:00 24,0 18,0 16 9 NW 10
16.08.2019 08:00:00 23,0 18,0 16 9 NW 10
16.08.2019 07:00:00 23,0 19,0 16 9 NNW 10
16.08.2019 06:00:00 24,0 19,0 13 7 NNW 10
16.08.2019 05:00:00 24,0 19,0 13 7 NW 10
16.08.2019 04:00:00 24,0 19,0 13 7 NNW 10
16.08.2019 03:00:00 25,0 19,0 9 5 NW 10
16.08.2019 02:00:00 26,0 20,0 8 4 N 10
16.08.2019 01:00:00 26,0 21,0 9 5 NE 10
16.08.2019 00:00:00 26,0 22,0 9 5 NE 10
15.08.2019 23:00:00 26,0 22,0 11 6 NNE 10
15.08.2019 22:00:00 27,0 22,0 13 7 ENE 10
15.08.2019 21:00:00 27,0 21,0 18 10 ENE 10
15.08.2019 20:00:00 28,0 21,0 22 12 ENE 10
15.08.2019 19:00:00 29,0 21,0 22 12 ENE 10
15.08.2019 18:00:00 30,0 21,0 18 10 E 10
15.08.2019 17:00:00 31,0 21,0 21 11 SE 10
15.08.2019 16:00:00 30,0 21,0 21 11 E 10
15.08.2019 15:00:00 30,0 22,0 21 11 E 10
15.08.2019 14:00:00 31,0 23,0 16 9 E 10
15.08.2019 13:00:00 30,0 22,0 15 8 E 10
15.08.2019 12:00:00 31,0 18,0 8 4 ENE 10
15.08.2019 11:00:00 29,0 19,0 2 1 - 10
15.08.2019 10:00:00 27,0 18,0 0 0 N 10
15.08.2019 09:00:00 25,0 18,0 0 0 N 10
15.08.2019 08:00:00 22,0 18,0 4 2 W 10
15.08.2019 07:00:00 22,0 18,0 5 3 WNW 10
15.08.2019 06:00:00 22,0 18,0 8 4 WNW 10
15.08.2019 05:00:00 23,0 18,0 5 3 WSW 10
15.08.2019 04:00:00 24,0 19,0 4 2 NNW 10
15.08.2019 03:00:00 24,0 19,0 4 2 - 10
15.08.2019 02:00:00 25,0 19,0 5 3 WSW 10
15.08.2019 01:00:00 26,0 21,0 5 3 E 10
15.08.2019 00:00:00 27,0 19,0 4 2 - 10
14.08.2019 23:00:00 27,0 19,0 5 3 N 10
14.08.2019 22:00:00 27,0 20,0 13 7 NNE 10
14.08.2019 21:00:00 28,0 22,0 15 8 NNE 10
14.08.2019 20:00:00 29,0 21,0 13 7 ENE 10
14.08.2019 19:00:00 30,0 17,0 18 10 ENE 10
14.08.2019 18:00:00 31,0 18,0 21 11 E 10
14.08.2019 17:00:00 31,0 18,0 21 11 E 10
14.08.2019 16:00:00 31,0 19,0 18 10 ESE 10
14.08.2019 15:00:00 30,0 19,0 21 11 SE 10
14.08.2019 14:00:00 30,0 20,0 22 12 ESE 10
14.08.2019 13:00:00 31,0 19,0 11 6 SE 10
14.08.2019 12:00:00 29,0 19,0 11 6 E 10
14.08.2019 11:00:00 28,0 19,0 4 2 - 10
14.08.2019 10:00:00 27,0 19,0 2 1 - 10
14.08.2019 09:00:00 24,0 19,0 5 3 W 10
14.08.2019 08:00:00 22,0 19,0 4 2 W 10
14.08.2019 07:00:00 22,0 19,0 8 4 W 10
14.08.2019 06:00:00 23,0 19,0 8 4 WSW 10
14.08.2019 05:00:00 23,0 19,0 4 2 - 10
14.08.2019 04:00:00 23,0 19,0 9 5 NW 10
14.08.2019 03:00:00 24,0 19,0 8 4 NW 10
14.08.2019 02:00:00 24,0 20,0 8 4 NNW 10
14.08.2019 01:00:00 25,0 20,0 9 5 NNW 10
14.08.2019 00:00:00 25,0 20,0 5 3 WNW 10
13.08.2019 23:00:00 25,0 19,0 4 2 - 10
13.08.2019 22:00:00 25,0 19,0 9 5 ESE 10
13.08.2019 21:00:00 25,0 19,0 13 7 ESE 10
13.08.2019 20:00:00 26,0 19,0 15 8 ESE 10
13.08.2019 19:00:00 27,0 19,0 18 10 SE 10
13.08.2019 18:00:00 27,0 19,0 13 7 ESE 10
13.08.2019 17:00:00 27,0 18,0 16 9 SE 10
13.08.2019 16:00:00 27,0 18,0 16 9 ESE 10
13.08.2019 15:00:00 26,0 17,0 15 8 ESE 10
13.08.2019 14:00:00 26,0 17,0 13 7 E 10
13.08.2019 13:00:00 26,0 17,0 18 10 E 10
13.08.2019 12:00:00 26,0 17,0 16 9 E 10
13.08.2019 11:00:00 26,0 15,0 15 8 ENE 10
13.08.2019 10:00:00 26,0 13,0 9 5 E 10
13.08.2019 09:00:00 26,0 11,0 8 4 NE 10
13.08.2019 08:00:00 25,0 10,0 8 4 NE 10
13.08.2019 07:00:00 25,0 9,0 5 3 NE 10
13.08.2019 06:00:00 24,0 10,0 2 1 - 10
13.08.2019 05:00:00 25,0 13,0 5 3 N 10
13.08.2019 04:00:00 25,0 12,0 8 4 NE 10
13.08.2019 03:00:00 25,0 18,0 8 4 NE 10
13.08.2019 02:00:00 25,0 19,0 5 3 NNW 10
13.08.2019 01:00:00 26,0 19,0 8 4 NNE 10
13.08.2019 00:00:00 26,0 20,0 8 4 NE 10
12.08.2019 23:00:00 26,0 20,0 9 5 ENE 10
12.08.2019 22:00:00 26,0 20,0 9 5 E 10
12.08.2019 21:00:00 26,0 20,0 15 8 E 10
12.08.2019 20:00:00 27,0 21,0 13 7 E 10
12.08.2019 19:00:00 28,0 21,0 21 11 E 10
12.08.2019 18:00:00 28,0 20,0 22 12 ENE 10
12.08.2019 17:00:00 29,0 19,0 21 11 SE 10
12.08.2019 16:00:00 29,0 18,0 24 13 E 10
12.08.2019 15:00:00 30,0 16,0 26 14 E 10
12.08.2019 14:00:00 30,0 14,0 22 12 E 10
12.08.2019 13:00:00 31,0 13,0 22 12 E 10

tt = Température de l'air
td = dewpoint
ff = Vitesse du vent
dd = Direction du vent
vv = visibility

stations d'obs. à proximité